Time;durP1;ratioP1;P1;durP2;ratioP2;P2;SDS_P1;SDS_P2;PMS_P1;PMS_P2;Temp;Humidity;BMP_temperature;BMP_pressure;BME280_temperature;BME280_humidity;BME280_pressure;Samples;Min_cycle;Max_cycle;Signal;HPM_P1;HPM_P2
2023/07/16 00:02:07;;;;;;;14.90;13.02;;;19.50;99.90;;;;;;4977622;28;20085;-74
2023/07/16 00:04:34;;;;;;;13.63;12.32;;;19.30;99.90;;;;;;4978730;28;20066;-76
2023/07/16 00:07:02;;;;;;;12.75;11.65;;;19.30;99.90;;;;;;4971226;28;20298;-74
2023/07/16 00:09:29;;;;;;;13.13;11.77;;;19.30;99.90;;;;;;4974151;28;20044;-76
2023/07/16 00:11:56;;;;;;;19.27;13.20;;;19.30;99.90;;;;;;4979090;28;20042;-76
2023/07/16 00:14:23;;;;;;;12.95;11.65;;;19.30;99.90;;;;;;4973481;28;20050;-76
2023/07/16 00:16:50;;;;;;;12.23;10.98;;;19.30;99.90;;;;;;4977051;28;20448;-73
2023/07/16 00:19:17;;;;;;;11.65;10.60;;;19.30;99.90;;;;;;4976699;28;20038;-75
2023/07/16 00:21:44;;;;;;;12.23;11.15;;;19.30;99.90;;;;;;4977888;28;20121;-74
2023/07/16 00:24:10;;;;;;;14.55;13.25;;;19.30;99.90;;;;;;5010105;28;20049;-74
2023/07/16 00:26:37;;;;;;;14.35;13.35;;;19.40;99.90;;;;;;4978296;28;20046;-75
2023/07/16 00:29:04;;;;;;;16.02;14.80;;;19.50;99.90;;;;;;4973388;28;20085;-74
2023/07/16 00:31:31;;;;;;;16.92;15.88;;;19.60;99.90;;;;;;4992351;28;20040;-74
2023/07/16 00:33:58;;;;;;;17.42;16.35;;;19.70;99.90;;;;;;4979132;28;20626;-75
2023/07/16 00:36:25;;;;;;;17.40;16.33;;;19.80;99.90;;;;;;4975452;28;20073;-74
2023/07/16 00:38:52;;;;;;;17.42;16.15;;;19.80;99.90;;;;;;4974554;28;21700;-74
2023/07/16 00:41:19;;;;;;;16.73;15.52;;;19.70;99.90;;;;;;4976511;28;20037;-74
2023/07/16 00:43:46;;;;;;;17.55;16.05;;;19.70;99.90;;;;;;4977971;28;20066;-74
2023/07/16 00:46:12;;;;;;;16.73;15.52;;;19.70;99.90;;;;;;4974433;28;20046;-74
2023/07/16 00:48:41;;;;;;;18.15;17.05;;;19.70;99.90;;;;;;4974136;28;20101;-74
2023/07/16 00:51:09;;;;;;;17.38;16.23;;;19.60;99.90;;;;;;4975321;28;20152;-74
2023/07/16 00:53:36;;;;;;;19.42;17.83;;;19.60;99.90;;;;;;4975105;28;20108;-74
2023/07/16 00:56:03;;;;;;;17.95;16.90;;;19.50;99.90;;;;;;4980510;28;20054;-74
2023/07/16 00:58:29;;;;;;;19.42;18.13;;;19.40;99.90;;;;;;4974368;28;20050;-74
2023/07/16 01:00:56;;;;;;;18.50;17.35;;;19.30;99.90;;;;;;4977207;28;20041;-74
2023/07/16 01:03:23;;;;;;;18.70;17.60;;;19.30;99.90;;;;;;4981127;28;20675;-74
2023/07/16 01:06:19;;;;;;;18.52;17.33;;;19.30;99.90;;;;;;4976688;28;20069;-74
2023/07/16 01:09:06;;;;;;;18.58;17.42;;;19.10;99.90;;;;;;4977044;28;20054;-74
2023/07/16 01:11:35;;;;;;;18.60;17.50;;;19.10;99.90;;;;;;4972102;28;20051;-74
2023/07/16 01:14:03;;;;;;;17.85;16.75;;;19.10;99.90;;;;;;4975529;28;20054;-74
2023/07/16 01:16:30;;;;;;;17.90;16.80;;;19.10;99.90;;;;;;4977307;28;20101;-74
2023/07/16 01:18:58;;;;;;;18.20;17.20;;;19.00;99.90;;;;;;4958678;28;20049;-74
2023/07/16 01:21:32;;;;;;;18.20;17.10;;;19.00;99.90;;;;;;4979128;28;20487;-74
2023/07/16 01:24:20;;;;;;;18.40;17.30;;;19.00;99.90;;;;;;4974030;28;20096;-73
2023/07/16 01:27:26;;;;;;;18.63;17.52;;;18.90;99.90;;;;;;4973586;28;20042;-74
2023/07/16 01:30:01;;;;;;;18.48;17.05;;;19.00;99.90;;;;;;4972792;28;20051;-74
2023/07/16 01:32:31;;;;;;;18.23;17.13;;;19.00;99.90;;;;;;4975592;28;20065;-74
2023/07/16 01:35:01;;;;;;;18.60;17.50;;;19.00;99.90;;;;;;4976490;28;20057;-74
2023/07/16 01:37:28;;;;;;;18.75;17.55;;;18.80;99.90;;;;;;4981082;28;20050;-73
2023/07/16 01:39:55;;;;;;;17.83;16.73;;;18.70;99.90;;;;;;4974249;28;20401;-74
2023/07/16 01:42:22;;;;;;;18.20;17.08;;;18.60;99.90;;;;;;4973335;28;20053;-73
2023/07/16 01:44:49;;;;;;;17.92;16.63;;;18.50;99.90;;;;;;4981604;28;20081;-76
2023/07/16 01:47:35;;;;;;;18.42;17.25;;;18.40;99.90;;;;;;4975631;28;20053;-74
2023/07/16 01:50:03;;;;;;;18.52;17.38;;;18.40;99.90;;;;;;4974239;28;20054;-73
2023/07/16 01:52:30;;;;;;;18.30;17.00;;;18.30;99.90;;;;;;5013689;28;20042;-74
2023/07/16 01:54:56;;;;;;;17.88;16.77;;;18.20;99.90;;;;;;4978142;28;20062;-74
2023/07/16 01:57:23;;;;;;;17.30;16.30;;;18.20;99.90;;;;;;4976499;28;20045;-74
2023/07/16 01:59:50;;;;;;;17.63;16.52;;;18.30;99.90;;;;;;4992724;28;20038;-74
2023/07/16 02:02:17;;;;;;;18.15;16.83;;;18.20;99.90;;;;;;4980466;28;20046;-73
2023/07/16 02:04:45;;;;;;;18.23;17.13;;;18.20;99.90;;;;;;4992894;28;20097;-73
2023/07/16 02:07:11;;;;;;;18.15;17.00;;;18.20;99.90;;;;;;4982312;28;20042;-73
2023/07/16 02:09:59;;;;;;;17.85;16.65;;;18.20;99.90;;;;;;4981730;28;20464;-74
2023/07/16 02:12:42;;;;;;;17.90;16.70;;;18.30;99.90;;;;;;4965246;28;20540;-74
2023/07/16 02:15:09;;;;;;;18.35;17.10;;;18.30;99.90;;;;;;4976843;28;20051;-74
2023/07/16 02:17:36;;;;;;;18.55;17.35;;;18.20;99.90;;;;;;4976215;28;20062;-74
2023/07/16 02:20:05;;;;;;;18.55;17.20;;;18.20;99.90;;;;;;4999700;28;20053;-74
2023/07/16 02:22:33;;;;;;;17.90;16.90;;;18.20;99.90;;;;;;4982313;28;20038;-74
2023/07/16 02:25:00;;;;;;;18.20;16.90;;;18.20;99.90;;;;;;4994620;28;20064;-73
2023/07/16 02:27:28;;;;;;;17.75;16.55;;;18.20;99.90;;;;;;4981087;28;20046;-73
2023/07/16 02:29:55;;;;;;;17.50;16.40;;;18.20;99.90;;;;;;4981090;28;20050;-74
2023/07/16 02:32:22;;;;;;;18.33;17.13;;;18.20;99.90;;;;;;4977109;28;20529;-74
2023/07/16 02:34:49;;;;;;;17.65;16.52;;;18.20;99.90;;;;;;4976926;28;20046;-74
2023/07/16 02:37:16;;;;;;;18.40;17.00;;;18.10;99.90;;;;;;4978924;28;20038;-74
2023/07/16 02:39:47;;;;;;;18.00;16.80;;;18.00;99.90;;;;;;4976397;28;20090;-73
2023/07/16 02:42:14;;;;;;;17.88;16.73;;;18.00;99.90;;;;;;4980759;28;20057;-73
2023/07/16 02:44:44;;;;;;;17.45;16.45;;;17.90;99.90;;;;;;4978919;28;20116;-73
2023/07/16 02:47:11;;;;;;;17.98;16.77;;;17.80;99.90;;;;;;4979467;28;20046;-74
2023/07/16 02:49:39;;;;;;;17.50;16.45;;;17.70;99.90;;;;;;4978261;28;20047;-74
2023/07/16 02:52:06;;;;;;;17.65;16.52;;;17.60;99.90;;;;;;4979695;28;20186;-74
2023/07/16 02:54:35;;;;;;;17.38;16.40;;;17.60;99.90;;;;;;4978558;28;20050;-74
2023/07/16 02:57:03;;;;;;;17.90;16.67;;;17.60;99.90;;;;;;4978420;28;20120;-73
2023/07/16 02:59:30;;;;;;;17.75;16.65;;;17.50;99.90;;;;;;4982225;28;20038;-76
2023/07/16 03:01:56;;;;;;;17.23;16.20;;;17.50;99.90;;;;;;4980827;28;20034;-76
2023/07/16 03:04:23;;;;;;;17.77;16.67;;;17.40;99.90;;;;;;4980729;28;20070;-73
2023/07/16 03:06:51;;;;;;;17.55;16.13;;;17.40;99.90;;;;;;4982320;28;20042;-74
2023/07/16 03:09:18;;;;;;;16.30;15.30;;;17.30;99.90;;;;;;4977520;28;20563;-74
2023/07/16 03:11:45;;;;;;;16.20;15.30;;;17.20;99.90;;;;;;4981388;28;20085;-74
2023/07/16 03:14:12;;;;;;;16.25;15.35;;;17.20;99.90;;;;;;4979267;28;20042;-74
2023/07/16 03:16:38;;;;;;;17.02;15.75;;;17.10;99.90;;;;;;4978621;28;20042;-74
2023/07/16 03:19:06;;;;;;;16.67;15.55;;;17.10;99.90;;;;;;4974631;28;20133;-74
2023/07/16 03:21:33;;;;;;;16.05;14.95;;;17.10;99.90;;;;;;4980924;28;20050;-74
2023/07/16 03:23:59;;;;;;;16.08;14.93;;;17.00;99.90;;;;;;4978035;28;20074;-74
2023/07/16 03:26:26;;;;;;;15.77;14.88;;;16.90;99.90;;;;;;4975140;28;20038;-73
2023/07/16 03:28:55;;;;;;;15.90;14.85;;;16.90;99.90;;;;;;4975138;28;20042;-75
2023/07/16 03:31:22;;;;;;;16.90;15.90;;;16.80;99.90;;;;;;4975300;28;20046;-76
2023/07/16 03:33:50;;;;;;;15.98;14.73;;;16.70;99.90;;;;;;4980308;28;20046;-73
2023/07/16 03:36:18;;;;;;;15.48;14.65;;;16.70;99.90;;;;;;4974908;28;20041;-74
2023/07/16 03:38:45;;;;;;;15.98;14.80;;;16.70;99.90;;;;;;4987780;28;20084;-74
2023/07/16 03:41:12;;;;;;;16.08;15.18;;;16.70;99.90;;;;;;4981466;28;20629;-74
2023/07/16 03:43:39;;;;;;;17.55;16.35;;;16.70;99.90;;;;;;4964074;28;20188;-74
2023/07/16 03:46:15;;;;;;;18.50;17.13;;;16.80;99.90;;;;;;4976403;28;20563;-75
2023/07/16 03:48:43;;;;;;;18.80;17.40;;;16.80;99.90;;;;;;4963959;28;20579;-75
2023/07/16 03:51:10;;;;;;;19.05;17.60;;;16.90;99.90;;;;;;4974767;28;20107;-73
2023/07/16 03:53:36;;;;;;;17.95;16.70;;;16.90;99.90;;;;;;4980978;28;20057;-74
2023/07/16 03:56:04;;;;;;;19.23;17.73;;;16.90;99.90;;;;;;4975312;28;20049;-74
2023/07/16 03:58:30;;;;;;;18.77;17.55;;;16.90;99.90;;;;;;4976545;28;20105;-73
2023/07/16 04:00:57;;;;;;;18.88;17.58;;;16.90;99.90;;;;;;4978216;28;20614;-76
2023/07/16 04:03:25;;;;;;;19.42;17.77;;;16.90;99.90;;;;;;4977417;28;20049;-76
2023/07/16 04:05:52;;;;;;;18.65;17.35;;;17.00;99.90;;;;;;4976723;28;20039;-76
2023/07/16 04:08:18;;;;;;;19.45;18.25;;;17.00;99.90;;;;;;4976895;28;20054;-75
2023/07/16 04:10:45;;;;;;;19.67;18.58;;;17.10;99.90;;;;;;4982392;28;20116;-76
2023/07/16 04:13:12;;;;;;;19.13;17.85;;;17.10;99.90;;;;;;4973545;28;20074;-76
2023/07/16 04:15:39;;;;;;;18.92;17.63;;;17.10;99.90;;;;;;4975871;28;20108;-76
2023/07/16 04:18:05;;;;;;;19.08;17.95;;;17.20;99.90;;;;;;4977210;28;20638;-75
2023/07/16 04:20:33;;;;;;;19.27;17.98;;;17.10;99.90;;;;;;4976959;28;20397;-73
2023/07/16 04:23:00;;;;;;;19.95;18.48;;;17.20;99.90;;;;;;4978304;28;20046;-76
2023/07/16 04:25:27;;;;;;;19.92;18.55;;;17.20;99.90;;;;;;4976811;28;20042;-73
2023/07/16 04:27:54;;;;;;;19.83;18.52;;;17.20;99.90;;;;;;4993121;28;20611;-76
2023/07/16 04:30:21;;;;;;;20.60;19.00;;;17.30;99.90;;;;;;4978064;28;20046;-76
2023/07/16 04:32:48;;;;;;;20.30;18.63;;;17.30;99.90;;;;;;4978821;28;20140;-73
2023/07/16 04:35:15;;;;;;;19.25;17.95;;;17.30;99.90;;;;;;4974736;28;20042;-75
2023/07/16 04:37:42;;;;;;;19.77;18.48;;;17.30;99.90;;;;;;4981712;28;20551;-74
2023/07/16 04:40:09;;;;;;;19.88;18.58;;;17.40;99.90;;;;;;4978038;28;20657;-74
2023/07/16 04:42:35;;;;;;;20.83;19.20;;;17.50;99.90;;;;;;4994222;28;20049;-75
2023/07/16 04:45:04;;;;;;;20.42;19.08;;;17.50;99.90;;;;;;5001090;28;20045;-74
2023/07/16 04:47:31;;;;;;;20.10;18.70;;;17.60;99.90;;;;;;4992351;28;20116;-74
2023/07/16 04:49:59;;;;;;;20.38;19.13;;;17.60;99.90;;;;;;4979298;28;20074;-74
2023/07/16 04:52:26;;;;;;;20.83;19.40;;;17.60;99.90;;;;;;4978806;28;20042;-76
2023/07/16 04:54:52;;;;;;;21.33;19.80;;;17.60;99.90;;;;;;4977750;28;20765;-73
2023/07/16 04:57:20;;;;;;;21.05;19.77;;;17.70;99.90;;;;;;4993564;28;20424;-74
2023/07/16 04:59:49;;;;;;;20.90;19.58;;;17.80;99.90;;;;;;4980529;28;20054;-74
2023/07/16 05:02:17;;;;;;;21.23;19.95;;;17.90;99.90;;;;;;4976817;28;20096;-73
2023/07/16 05:04:44;;;;;;;21.08;19.50;;;18.00;99.90;;;;;;4978664;28;20129;-74
2023/07/16 05:07:11;;;;;;;22.30;20.88;;;18.10;99.90;;;;;;5007906;28;20050;-75
2023/07/16 05:09:37;;;;;;;21.45;19.95;;;18.10;99.90;;;;;;4981252;28;20074;-74
2023/07/16 05:12:04;;;;;;;21.08;19.60;;;18.10;99.90;;;;;;5003425;28;20039;-74
2023/07/16 05:14:31;;;;;;;21.10;19.70;;;18.30;99.90;;;;;;4981791;28;20121;-74
2023/07/16 05:16:58;;;;;;;21.17;19.88;;;18.40;99.90;;;;;;4974340;28;20089;-74
2023/07/16 05:19:25;;;;;;;23.08;21.33;;;18.50;99.90;;;;;;4975111;28;20034;-74
2023/07/16 05:21:52;;;;;;;21.90;20.33;;;18.60;99.90;;;;;;4975409;28;20070;-74
2023/07/16 05:24:18;;;;;;;22.48;20.98;;;18.70;99.90;;;;;;4976495;28;20039;-75
2023/07/16 05:26:45;;;;;;;21.95;20.40;;;18.70;99.90;;;;;;4980968;28;20035;-75
2023/07/16 05:29:12;;;;;;;23.10;21.00;;;18.90;99.90;;;;;;4980288;28;20046;-74
2023/07/16 05:31:39;;;;;;;22.98;21.23;;;18.90;99.90;;;;;;4981757;28;20050;-74
2023/07/16 05:34:05;;;;;;;22.17;20.70;;;19.00;99.90;;;;;;4980942;28;20117;-74
2023/07/16 05:36:32;;;;;;;23.08;21.45;;;19.00;99.90;;;;;;4983829;28;20220;-75
2023/07/16 05:38:59;;;;;;;22.95;21.50;;;19.00;99.90;;;;;;4980477;28;20508;-75
2023/07/16 05:41:26;;;;;;;23.30;21.65;;;18.90;99.90;;;;;;4976320;28;20595;-75
2023/07/16 05:43:53;;;;;;;23.23;21.52;;;18.90;99.90;;;;;;4980042;28;20045;-74
2023/07/16 05:46:19;;;;;;;23.08;21.42;;;19.00;99.90;;;;;;4980317;28;20050;-74
2023/07/16 05:48:47;;;;;;;22.75;21.10;;;18.90;99.90;;;;;;4982486;28;20096;-74
2023/07/16 05:51:13;;;;;;;22.83;21.30;;;18.90;99.90;;;;;;4976796;28;20456;-74
2023/07/16 05:53:40;;;;;;;24.10;22.13;;;18.70;99.90;;;;;;4982385;28;20520;-74
2023/07/16 05:56:06;;;;;;;23.17;21.58;;;18.60;99.90;;;;;;4980671;28;20409;-74
2023/07/16 05:58:33;;;;;;;22.75;21.08;;;18.50;99.90;;;;;;4980817;28;20056;-74
2023/07/16 06:01:00;;;;;;;23.67;22.02;;;18.60;99.90;;;;;;4977851;28;20702;-74
2023/07/16 06:03:27;;;;;;;23.17;21.60;;;18.70;99.90;;;;;;4980996;28;20093;-75
2023/07/16 06:05:53;;;;;;;23.02;21.35;;;18.70;99.90;;;;;;4982806;28;20038;-74
2023/07/16 06:08:20;;;;;;;24.50;22.13;;;18.90;99.90;;;;;;4981894;28;20528;-75
2023/07/16 06:10:48;;;;;;;23.38;21.33;;;18.80;99.90;;;;;;4983442;28;20046;-75
2023/07/16 06:13:14;;;;;;;23.48;21.33;;;18.80;99.90;;;;;;4982572;28;20037;-73
2023/07/16 06:15:41;;;;;;;24.02;22.23;;;18.80;99.90;;;;;;4978367;28;20054;-75
2023/07/16 06:18:09;;;;;;;24.13;22.23;;;18.70;99.90;;;;;;4983133;28;20493;-74
2023/07/16 06:20:35;;;;;;;24.38;22.52;;;18.70;99.90;;;;;;4975236;28;20046;-72
2023/07/16 06:23:02;;;;;;;25.95;24.00;;;18.90;99.90;;;;;;4982267;28;20104;-74
2023/07/16 06:25:29;;;;;;;25.88;23.77;;;19.00;99.90;;;;;;4981400;28;20074;-74
2023/07/16 06:27:56;;;;;;;25.63;23.90;;;19.20;99.90;;;;;;4979041;28;20730;-74
2023/07/16 06:30:22;;;;;;;24.52;22.73;;;19.30;99.90;;;;;;4977062;28;20101;-73
2023/07/16 06:32:49;;;;;;;24.70;23.13;;;19.30;99.90;;;;;;4983192;28;20050;-74
2023/07/16 06:35:16;;;;;;;24.20;22.45;;;19.30;99.90;;;;;;4978410;28;20125;-74
2023/07/16 06:37:43;;;;;;;25.10;23.42;;;19.40;99.90;;;;;;4981312;28;20038;-74
2023/07/16 06:40:10;;;;;;;26.20;24.25;;;19.40;99.90;;;;;;4974198;28;20505;-73
2023/07/16 06:42:36;;;;;;;27.02;24.92;;;19.40;99.90;;;;;;4981041;28;20069;-74
2023/07/16 06:45:05;;;;;;;26.80;24.70;;;19.50;99.90;;;;;;4980289;28;20038;-74
2023/07/16 06:47:32;;;;;;;27.25;25.25;;;19.70;99.90;;;;;;4977068;28;20046;-73
2023/07/16 06:49:59;;;;;;;27.20;25.20;;;19.90;99.90;;;;;;4979814;28;20515;-73
2023/07/16 06:52:27;;;;;;;26.83;24.92;;;20.30;99.90;;;;;;4980409;28;20054;-75
2023/07/16 06:54:55;;;;;;;27.77;25.75;;;20.40;99.90;;;;;;4980147;28;20093;-74
2023/07/16 06:57:23;;;;;;;27.08;24.95;;;20.50;99.90;;;;;;4977280;28;20057;-74
2023/07/16 06:59:50;;;;;;;27.25;25.25;;;20.40;99.90;;;;;;4978816;28;20046;-73
2023/07/16 07:02:17;;;;;;;27.90;25.85;;;20.50;99.90;;;;;;4977613;28;20127;-73
2023/07/16 07:04:44;;;;;;;27.60;25.63;;;20.50;99.90;;;;;;4979064;28;20043;-73
2023/07/16 07:07:11;;;;;;;29.17;27.23;;;20.60;99.90;;;;;;4977589;28;20127;-73
2023/07/16 07:09:38;;;;;;;27.80;25.80;;;20.80;99.90;;;;;;4965991;28;20088;-73
2023/07/16 07:12:05;;;;;;;28.25;26.35;;;20.90;99.90;;;;;;4964149;28;20476;-74
2023/07/16 07:14:33;;;;;;;28.15;25.92;;;20.80;99.90;;;;;;4996394;28;20046;-75
2023/07/16 07:17:00;;;;;;;29.40;27.40;;;21.20;99.90;;;;;;5007930;28;20050;-75
2023/07/16 07:19:27;;;;;;;31.67;29.38;;;21.40;99.90;;;;;;5003228;28;20042;-75
2023/07/16 07:21:53;;;;;;;27.27;25.17;;;21.20;99.90;;;;;;4980174;28;20046;-74
2023/07/16 07:24:20;;;;;;;31.90;29.45;;;21.00;99.90;;;;;;4979902;28;20038;-74
2023/07/16 07:26:47;;;;;;;31.00;28.80;;;20.60;99.90;;;;;;4976730;28;20077;-75
2023/07/16 07:29:14;;;;;;;32.35;30.20;;;20.80;99.90;;;;;;4977222;28;20054;-75
2023/07/16 07:31:41;;;;;;;34.03;31.33;;;20.80;99.90;;;;;;4978255;28;20057;-75
2023/07/16 07:34:08;;;;;;;30.80;28.80;;;21.20;99.90;;;;;;4984545;28;20105;-74
2023/07/16 07:36:34;;;;;;;32.58;29.83;;;21.50;99.90;;;;;;4978104;28;20539;-74
2023/07/16 07:39:01;;;;;;;27.35;25.15;;;21.50;99.90;;;;;;4978626;28;20051;-74
2023/07/16 07:41:28;;;;;;;27.52;25.23;;;21.30;99.90;;;;;;4979434;28;20042;-73
2023/07/16 07:43:54;;;;;;;28.10;25.70;;;21.10;99.90;;;;;;4977383;28;20042;-73
2023/07/16 07:46:21;;;;;;;26.67;24.83;;;20.50;99.90;;;;;;4980953;28;20034;-75
2023/07/16 07:48:48;;;;;;;27.65;25.38;;;20.20;99.90;;;;;;4986018;28;20034;-75
2023/07/16 07:51:15;;;;;;;28.95;27.05;;;20.10;99.90;;;;;;4976572;28;20046;-73
2023/07/16 07:53:42;;;;;;;30.15;27.92;;;20.00;99.90;;;;;;4979092;28;20561;-75
2023/07/16 07:56:09;;;;;;;28.05;25.95;;;19.90;99.90;;;;;;4977839;28;20046;-73
2023/07/16 07:58:35;;;;;;;32.28;29.75;;;20.10;99.90;;;;;;4980653;28;20472;-73
2023/07/16 08:01:07;;;;;;;31.95;29.38;;;20.50;99.90;;;;;;4980133;28;20057;-73
2023/07/16 08:03:35;;;;;;;26.33;24.60;;;21.00;99.90;;;;;;4975119;28;20045;-74
2023/07/16 08:06:02;;;;;;;28.20;26.05;;;21.30;99.90;;;;;;4978854;28;20543;-74
2023/07/16 08:08:29;;;;;;;26.55;24.75;;;21.50;99.90;;;;;;4976167;28;20448;-74
2023/07/16 08:10:56;;;;;;;31.25;29.23;;;21.30;99.90;;;;;;4980536;28;20616;-73
2023/07/16 08:13:23;;;;;;;30.88;28.80;;;21.30;99.90;;;;;;5011115;28;20046;-73
2023/07/16 08:15:50;;;;;;;30.85;28.80;;;21.50;99.90;;;;;;4978082;28;20108;-73
2023/07/16 08:18:17;;;;;;;31.45;29.02;;;21.80;99.90;;;;;;4976999;28;20464;-75
2023/07/16 08:20:43;;;;;;;32.08;29.60;;;22.20;99.90;;;;;;4976392;28;20041;-74
2023/07/16 08:23:10;;;;;;;31.67;29.52;;;22.00;99.90;;;;;;4978428;28;20111;-74
2023/07/16 08:25:37;;;;;;;30.83;28.88;;;21.90;99.90;;;;;;4976479;28;20126;-73
2023/07/16 08:28:04;;;;;;;31.10;29.20;;;21.90;99.90;;;;;;5007098;28;20050;-74
2023/07/16 08:30:32;;;;;;;33.08;30.88;;;21.70;99.90;;;;;;4978720;28;20050;-75
2023/07/16 08:32:59;;;;;;;32.38;30.27;;;21.50;99.90;;;;;;4978980;28;20065;-75
2023/07/16 08:35:26;;;;;;;33.60;31.05;;;21.50;99.90;;;;;;4977940;28;20047;-74
2023/07/16 08:37:53;;;;;;;33.20;30.92;;;21.50;99.90;;;;;;4985154;28;20700;-74
2023/07/16 08:40:21;;;;;;;33.30;31.13;;;21.50;99.90;;;;;;4979554;28;20061;-74
2023/07/16 08:42:49;;;;;;;31.58;29.58;;;21.60;99.90;;;;;;4977511;28;20125;-75
2023/07/16 08:45:16;;;;;;;33.63;31.33;;;21.70;99.90;;;;;;4979656;28;20037;-75
2023/07/16 08:47:43;;;;;;;32.22;30.02;;;21.80;99.90;;;;;;4980486;28;20192;-72
2023/07/16 08:50:11;;;;;;;34.22;31.92;;;22.00;99.90;;;;;;4974498;28;20105;-73
2023/07/16 08:52:39;;;;;;;34.13;31.83;;;21.70;99.90;;;;;;4978038;28;20050;-75
2023/07/16 08:55:07;;;;;;;33.55;31.25;;;22.00;99.90;;;;;;4979379;28;20050;-73
2023/07/16 08:57:34;;;;;;;34.15;31.73;;;21.90;99.90;;;;;;4980257;28;20125;-73
2023/07/16 09:00:02;;;;;;;28.45;26.33;;;22.40;99.90;;;;;;4976006;28;20115;-74
2023/07/16 09:02:29;;;;;;;33.72;31.52;;;22.60;99.90;;;;;;4977632;28;20559;-72
2023/07/16 09:04:56;;;;;;;31.30;29.20;;;22.10;99.90;;;;;;4979751;28;20034;-73
2023/07/16 09:07:22;;;;;;;35.10;32.60;;;22.00;99.90;;;;;;4980276;28;20046;-73
2023/07/16 09:09:59;;;;;;;32.55;30.30;;;22.00;99.90;;;;;;4975906;28;20038;-75
2023/07/16 09:12:27;;;;;;;30.45;28.23;;;21.90;99.90;;;;;;4975488;28;20038;-75
2023/07/16 09:14:54;;;;;;;32.03;29.88;;;22.00;99.90;;;;;;4979309;28;20042;-74
2023/07/16 09:17:25;;;;;;;33.75;31.35;;;21.90;99.90;;;;;;4973891;28;20054;-74
2023/07/16 09:19:52;;;;;;;34.55;32.00;;;21.90;99.90;;;;;;4979370;28;20030;-73
2023/07/16 09:22:20;;;;;;;33.95;31.65;;;21.90;99.90;;;;;;4973291;28;20038;-73
2023/07/16 09:24:47;;;;;;;29.20;26.95;;;22.20;99.90;;;;;;4985351;28;20516;-72
2023/07/16 09:27:14;;;;;;;34.55;32.15;;;22.50;99.90;;;;;;4973068;28;20034;-72
2023/07/16 09:29:41;;;;;;;34.75;32.55;;;22.30;99.90;;;;;;4978260;28;20567;-73
2023/07/16 09:32:08;;;;;;;35.72;33.33;;;22.30;99.90;;;;;;4968486;28;20051;-73
2023/07/16 09:34:36;;;;;;;31.52;29.42;;;22.50;99.90;;;;;;4972908;28;20456;-72
2023/07/16 09:37:20;;;;;;;35.15;32.83;;;22.50;99.90;;;;;;4977750;28;20050;-69
2023/07/16 09:39:47;;;;;;;28.52;26.52;;;22.60;99.90;;;;;;4983004;28;20570;-76
2023/07/16 09:42:17;;;;;;;35.25;32.95;;;22.90;99.90;;;;;;4976386;28;20038;-71
2023/07/16 09:44:47;;;;;;;34.33;31.98;;;22.80;99.90;;;;;;4979483;28;20923;-71
2023/07/16 09:47:13;;;;;;;36.83;34.13;;;22.80;99.90;;;;;;4976082;28;20034;-71
2023/07/16 09:49:40;;;;;;;36.50;34.00;;;22.60;99.90;;;;;;4978140;28;20738;-70
2023/07/16 09:52:07;;;;;;;35.95;33.47;;;22.80;99.90;;;;;;4973619;28;20112;-70
2023/07/16 09:54:38;;;;;;;37.30;34.80;;;23.10;99.90;;;;;;4976279;28;20089;-69
2023/07/16 09:57:07;;;;;;;37.22;34.83;;;23.50;99.90;;;;;;4975332;28;20050;-72
2023/07/16 09:59:35;;;;;;;35.38;32.95;;;23.40;99.90;;;;;;4976203;28;20042;-71
2023/07/16 10:02:03;;;;;;;37.88;35.17;;;23.30;99.90;;;;;;4976084;28;20054;-72
2023/07/16 10:04:39;;;;;;;34.70;32.33;;;23.20;99.90;;;;;;4989502;28;20497;-72
2023/07/16 10:07:06;;;;;;;39.30;36.70;;;23.40;99.90;;;;;;4974746;28;20494;-71
2023/07/16 10:09:33;;;;;;;35.28;32.78;;;23.30;99.90;;;;;;4973044;28;20054;-71
2023/07/16 10:12:16;;;;;;;34.92;32.40;;;23.40;99.90;;;;;;4980198;28;20053;-71
2023/07/16 10:14:51;;;;;;;34.75;32.13;;;23.70;99.90;;;;;;4976918;28;20134;-70
2023/07/16 10:17:20;;;;;;;31.83;29.83;;;23.20;99.90;;;;;;4977541;28;20046;-70
2023/07/16 10:19:59;;;;;;;40.38;37.67;;;22.90;99.90;;;;;;4978728;28;20444;-70
2023/07/16 10:22:38;;;;;;;28.73;26.60;;;22.80;99.90;;;;;;4977704;28;20042;-71
2023/07/16 10:25:10;;;;;;;40.38;37.88;;;22.70;99.90;;;;;;4979505;28;20645;-71
2023/07/16 10:27:37;;;;;;;29.13;27.15;;;22.90;99.90;;;;;;4993424;28;20117;-70
2023/07/16 10:30:05;;;;;;;29.38;27.42;;;23.20;99.90;;;;;;4994643;28;20061;-71
2023/07/16 10:32:33;;;;;;;41.72;38.95;;;22.90;99.90;;;;;;4975354;28;20393;-70
2023/07/16 10:35:00;;;;;;;30.40;28.30;;;22.80;99.90;;;;;;4979967;28;20047;-71
2023/07/16 10:37:28;;;;;;;43.60;40.65;;;23.30;99.90;;;;;;4982699;28;20604;-70
2023/07/16 10:39:58;;;;;;;42.25;39.53;;;23.10;99.90;;;;;;4985187;28;20528;-70
2023/07/16 10:42:27;;;;;;;32.72;30.55;;;23.30;99.90;;;;;;4982283;28;20922;-71
2023/07/16 10:44:59;;;;;;;36.45;34.03;;;23.50;99.90;;;;;;4979165;28;20137;-70
2023/07/16 10:47:30;;;;;;;41.45;38.83;;;23.60;99.90;;;;;;4996589;28;20038;-70
2023/07/16 10:49:57;;;;;;;35.90;33.40;;;23.90;99.90;;;;;;4982700;28;20038;-71
2023/07/16 10:52:24;;;;;;;41.95;39.05;;;24.30;99.90;;;;;;4975988;28;20068;-70
2023/07/16 10:54:54;;;;;;;39.40;37.00;;;24.40;99.90;;;;;;4981803;28;20076;-70
2023/07/16 10:57:22;;;;;;;30.90;28.70;;;24.60;99.90;;;;;;4978064;28;20050;-71
2023/07/16 10:59:51;;;;;;;32.60;30.08;;;24.40;99.90;;;;;;4981698;28;20050;-71
2023/07/16 11:02:20;;;;;;;32.40;30.05;;;24.10;99.90;;;;;;4976573;28;20043;-71
2023/07/16 11:04:48;;;;;;;43.92;41.20;;;23.70;99.90;;;;;;4982702;28;20046;-71
2023/07/16 11:07:15;;;;;;;38.65;36.15;;;23.50;99.90;;;;;;4979026;28;20034;-69
2023/07/16 11:09:44;;;;;;;31.63;29.45;;;24.00;99.90;;;;;;4981520;28;20060;-71
2023/07/16 11:12:13;;;;;;;39.78;37.08;;;24.20;99.90;;;;;;5009687;28;20083;-70
2023/07/16 11:14:44;;;;;;;33.13;31.02;;;23.90;99.90;;;;;;4987388;28;20053;-71
2023/07/16 11:17:12;;;;;;;34.25;32.00;;;23.70;99.90;;;;;;4976287;28;20543;-71
2023/07/16 11:19:42;;;;;;;36.33;33.80;;;23.30;99.90;;;;;;4976510;28;20065;-70
2023/07/16 11:22:13;;;;;;;43.13;40.22;;;23.00;99.90;;;;;;4976286;28;20069;-71
2023/07/16 11:24:40;;;;;;;37.03;34.67;;;23.10;99.90;;;;;;4974239;28;20558;-71
2023/07/16 11:27:27;;;;;;;34.67;32.15;;;23.40;99.90;;;;;;4977512;28;20512;-71
2023/07/16 11:29:56;;;;;;;43.85;40.78;;;23.70;99.90;;;;;;4980303;28;20061;-70
2023/07/16 11:32:35;;;;;;;39.00;36.35;;;23.90;99.90;;;;;;4976802;28;20061;-70
2023/07/16 11:35:04;;;;;;;41.33;38.72;;;24.00;99.90;;;;;;4988698;28;20113;-70
2023/07/16 11:37:33;;;;;;;32.80;30.40;;;24.00;99.90;;;;;;4992788;28;20050;-71
2023/07/16 11:40:06;;;;;;;39.95;37.05;;;23.90;99.90;;;;;;4997771;28;20042;-71
2023/07/16 11:42:37;;;;;;;40.60;38.00;;;23.90;99.90;;;;;;5002662;28;20038;-70
2023/07/16 11:45:14;;;;;;;32.83;30.35;;;24.10;99.90;;;;;;4983752;28;20046;-71
2023/07/16 11:47:41;;;;;;;32.97;30.77;;;24.30;99.90;;;;;;4999764;28;20038;-71
2023/07/16 11:50:11;;;;;;;40.28;37.40;;;23.90;99.90;;;;;;4993770;28;20054;-70
2023/07/16 11:52:38;;;;;;;37.97;35.38;;;23.40;99.90;;;;;;4981409;28;20081;-71
2023/07/16 11:55:06;;;;;;;40.25;37.55;;;23.40;99.90;;;;;;4977672;28;20073;-71
2023/07/16 11:57:33;;;;;;;33.22;31.00;;;23.80;99.90;;;;;;4976110;28;20769;-71
2023/07/16 11:59:59;;;;;;;38.72;36.22;;;24.30;99.90;;;;;;4979275;28;20766;-70
2023/07/16 12:02:28;;;;;;;41.47;38.83;;;24.30;99.90;;;;;;4977304;28;20129;-71
2023/07/16 12:04:55;;;;;;;37.38;34.75;;;24.30;99.90;;;;;;4979732;28;20513;-71
2023/07/16 12:07:36;;;;;;;42.78;40.08;;;24.60;99.90;;;;;;4974301;28;20066;-70
2023/07/16 12:10:06;;;;;;;39.92;37.15;;;24.60;99.90;;;;;;4991360;28;20050;-70
2023/07/16 12:12:33;;;;;;;32.33;30.13;;;24.70;99.90;;;;;;4978073;28;20058;-71
2023/07/16 12:15:00;;;;;;;43.47;40.67;;;24.20;99.90;;;;;;4990379;28;20046;-70
2023/07/16 12:17:27;;;;;;;39.75;37.22;;;23.90;99.90;;;;;;4997126;28;20053;-70
2023/07/16 12:19:54;;;;;;;33.50;31.17;;;24.10;99.90;;;;;;4992019;28;20515;-72
2023/07/16 12:22:21;;;;;;;37.88;35.08;;;24.10;99.90;;;;;;4997886;28;20041;-71
2023/07/16 12:24:48;;;;;;;44.03;40.97;;;24.00;99.90;;;;;;5000227;28;20063;-71
2023/07/16 12:27:16;;;;;;;39.30;36.72;;;24.10;99.90;;;;;;4996165;28;20049;-73
2023/07/16 12:29:43;;;;;;;40.03;37.30;;;24.20;99.90;;;;;;4999419;28;20108;-71
2023/07/16 12:32:10;;;;;;;35.95;33.28;;;24.10;99.90;;;;;;4999562;28;20561;-71
2023/07/16 12:34:37;;;;;;;42.80;39.83;;;24.00;99.90;;;;;;4995770;28;20045;-72